sensor_id;sensor_type;location;lat;lon;timestamp;pressure;altitude;pressure_sealevel;temperature;humidity
41515;BME280;27247;48.020;16.720;2022-10-20T00:01:45;100927.50;;;7.13;86.29
41515;BME280;27247;48.020;16.720;2022-10-20T00:06:06;100933.22;;;6.97;85.55
41515;BME280;27247;48.020;16.720;2022-10-20T00:10:17;100931.94;;;6.81;85.49
41515;BME280;27247;48.020;16.720;2022-10-20T00:14:27;100933.53;;;6.72;86.59
41515;BME280;27247;48.020;16.720;2022-10-20T00:18:38;100933.63;;;6.82;87.08
41515;BME280;27247;48.020;16.720;2022-10-20T00:22:48;100928.19;;;6.83;86.90
41515;BME280;27247;48.020;16.720;2022-10-20T00:26:59;100910.78;;;6.90;87.08
41515;BME280;27247;48.020;16.720;2022-10-20T00:31:10;100914.69;;;6.75;84.86
41515;BME280;27247;48.020;16.720;2022-10-20T00:35:20;100912.34;;;6.38;84.14
41515;BME280;27247;48.020;16.720;2022-10-20T00:39:30;100915.47;;;5.99;84.24
41515;BME280;27247;48.020;16.720;2022-10-20T00:43:45;100913.72;;;5.87;84.36
41515;BME280;27247;48.020;16.720;2022-10-20T00:47:59;100921.09;;;5.83;84.88
41515;BME280;27247;48.020;16.720;2022-10-20T00:52:14;100921.31;;;5.80;85.84
41515;BME280;27247;48.020;16.720;2022-10-20T00:56:28;100915.91;;;5.82;85.31
41515;BME280;27247;48.020;16.720;2022-10-20T01:00:39;100902.94;;;5.55;87.30
41515;BME280;27247;48.020;16.720;2022-10-20T01:04:50;100898.38;;;5.57;88.36
41515;BME280;27247;48.020;16.720;2022-10-20T01:09:03;100893.41;;;5.41;89.90
41515;BME280;27247;48.020;16.720;2022-10-20T01:22:47;100895.09;;;5.42;90.07
41515;BME280;27247;48.020;16.720;2022-10-20T01:36:24;100888.66;;;5.22;88.89
41515;BME280;27247;48.020;16.720;2022-10-20T01:44:58;100878.31;;;5.30;89.44
41515;BME280;27247;48.020;16.720;2022-10-20T01:49:11;100885.06;;;5.34;90.95
41515;BME280;27247;48.020;16.720;2022-10-20T01:53:21;100870.97;;;5.34;91.54
41515;BME280;27247;48.020;16.720;2022-10-20T02:11:01;100878.44;;;4.57;86.18
41515;BME280;27247;48.020;16.720;2022-10-20T02:15:16;100872.88;;;4.73;86.69
41515;BME280;27247;48.020;16.720;2022-10-20T02:19:33;100873.72;;;4.49;86.98
41515;BME280;27247;48.020;16.720;2022-10-20T02:23:46;100867.31;;;4.28;87.26
41515;BME280;27247;48.020;16.720;2022-10-20T02:27:59;100877.69;;;4.31;89.70
41515;BME280;27247;48.020;16.720;2022-10-20T02:32:12;100874.34;;;4.16;91.36
41515;BME280;27247;48.020;16.720;2022-10-20T02:36:28;100876.22;;;4.27;91.15
41515;BME280;27247;48.020;16.720;2022-10-20T02:40:38;100871.41;;;4.45;92.71
41515;BME280;27247;48.020;16.720;2022-10-20T02:44:49;100857.28;;;4.57;91.63
41515;BME280;27247;48.020;16.720;2022-10-20T02:48:59;100862.47;;;4.59;92.70
41515;BME280;27247;48.020;16.720;2022-10-20T02:53:09;100859.38;;;4.65;92.27
41515;BME280;27247;48.020;16.720;2022-10-20T02:57:20;100858.69;;;4.50;92.01
41515;BME280;27247;48.020;16.720;2022-10-20T03:01:30;100864.25;;;4.58;92.98
41515;BME280;27247;48.020;16.720;2022-10-20T03:05:40;100862.00;;;4.65;91.78
41515;BME280;27247;48.020;16.720;2022-10-20T03:09:53;100865.72;;;4.62;90.84
41515;BME280;27247;48.020;16.720;2022-10-20T03:14:03;100868.03;;;4.67;91.49
41515;BME280;27247;48.020;16.720;2022-10-20T03:18:14;100856.94;;;4.62;89.17
41515;BME280;27247;48.020;16.720;2022-10-20T03:22:24;100873.38;;;4.54;91.16
41515;BME280;27247;48.020;16.720;2022-10-20T03:26:35;100868.59;;;4.59;92.82
41515;BME280;27247;48.020;16.720;2022-10-20T03:30:45;100869.84;;;4.66;91.18
41515;BME280;27247;48.020;16.720;2022-10-20T03:34:56;100858.06;;;4.70;90.12
41515;BME280;27247;48.020;16.720;2022-10-20T03:39:06;100868.16;;;4.65;91.44
41515;BME280;27247;48.020;16.720;2022-10-20T03:43:17;100861.84;;;4.55;92.76
41515;BME280;27247;48.020;16.720;2022-10-20T03:47:27;100863.94;;;4.26;92.71
41515;BME280;27247;48.020;16.720;2022-10-20T03:51:37;100868.59;;;4.10;90.96
41515;BME280;27247;48.020;16.720;2022-10-20T03:55:47;100864.00;;;3.88;86.87
41515;BME280;27247;48.020;16.720;2022-10-20T03:59:58;100864.41;;;3.82;86.55
41515;BME280;27247;48.020;16.720;2022-10-20T04:04:08;100866.75;;;3.61;87.84
41515;BME280;27247;48.020;16.720;2022-10-20T04:08:18;100853.66;;;3.60;88.16
41515;BME280;27247;48.020;16.720;2022-10-20T04:12:29;100864.75;;;3.39;88.93
41515;BME280;27247;48.020;16.720;2022-10-20T04:16:39;100867.50;;;3.63;88.74
41515;BME280;27247;48.020;16.720;2022-10-20T04:20:51;100860.09;;;3.68;90.50
41515;BME280;27247;48.020;16.720;2022-10-20T04:25:01;100855.75;;;3.80;91.44
41515;BME280;27247;48.020;16.720;2022-10-20T04:29:11;100866.84;;;3.72;92.19
41515;BME280;27247;48.020;16.720;2022-10-20T04:33:22;100859.25;;;3.80;91.27
41515;BME280;27247;48.020;16.720;2022-10-20T04:37:32;100867.28;;;3.66;91.33
41515;BME280;27247;48.020;16.720;2022-10-20T04:41:42;100864.44;;;3.57;92.68
41515;BME280;27247;48.020;16.720;2022-10-20T04:45:53;100864.22;;;3.72;92.71
41515;BME280;27247;48.020;16.720;2022-10-20T04:50:07;100852.59;;;3.75;91.89
41515;BME280;27247;48.020;16.720;2022-10-20T04:54:18;100850.03;;;3.73;90.77
41515;BME280;27247;48.020;16.720;2022-10-20T04:58:28;100857.66;;;3.78;89.83
41515;BME280;27247;48.020;16.720;2022-10-20T05:02:39;100852.16;;;3.68;90.43
41515;BME280;27247;48.020;16.720;2022-10-20T05:06:49;100860.41;;;3.64;89.97
41515;BME280;27247;48.020;16.720;2022-10-20T05:11:00;100837.16;;;3.56;90.13
41515;BME280;27247;48.020;16.720;2022-10-20T05:15:10;100847.09;;;3.65;90.26
41515;BME280;27247;48.020;16.720;2022-10-20T05:19:20;100851.75;;;3.62;89.98
41515;BME280;27247;48.020;16.720;2022-10-20T05:23:31;100855.97;;;3.64;90.00
41515;BME280;27247;48.020;16.720;2022-10-20T05:27:41;100854.28;;;3.63;90.25
41515;BME280;27247;48.020;16.720;2022-10-20T05:31:51;100850.06;;;3.61;90.61
41515;BME280;27247;48.020;16.720;2022-10-20T05:36:06;100846.66;;;3.59;90.32
41515;BME280;27247;48.020;16.720;2022-10-20T05:40:17;100867.50;;;3.50;90.28
41515;BME280;27247;48.020;16.720;2022-10-20T05:44:27;100868.22;;;3.40;90.13
41515;BME280;27247;48.020;16.720;2022-10-20T05:48:37;100870.31;;;3.22;88.93
41515;BME280;27247;48.020;16.720;2022-10-20T05:52:48;100874.88;;;3.45;88.54
41515;BME280;27247;48.020;16.720;2022-10-20T05:56:58;100872.66;;;3.39;90.23
41515;BME280;27247;48.020;16.720;2022-10-20T06:01:12;100878.59;;;3.56;90.37
41515;BME280;27247;48.020;16.720;2022-10-20T06:05:26;100890.31;;;3.51;93.52
41515;BME280;27247;48.020;16.720;2022-10-20T06:09:37;100886.53;;;3.56;94.48
41515;BME280;27247;48.020;16.720;2022-10-20T06:13:48;100880.19;;;3.71;94.74
41515;BME280;27247;48.020;16.720;2022-10-20T06:17:58;100883.88;;;3.94;95.20
41515;BME280;27247;48.020;16.720;2022-10-20T06:22:09;100887.34;;;4.20;95.76
41515;BME280;27247;48.020;16.720;2022-10-20T06:26:22;100880.84;;;4.36;96.11
41515;BME280;27247;48.020;16.720;2022-10-20T06:30:32;100884.94;;;4.53;96.50
41515;BME280;27247;48.020;16.720;2022-10-20T06:34:42;100891.53;;;4.71;95.90
41515;BME280;27247;48.020;16.720;2022-10-20T06:38:54;100890.78;;;4.93;95.89
41515;BME280;27247;48.020;16.720;2022-10-20T06:43:05;100881.59;;;5.10;96.12
41515;BME280;27247;48.020;16.720;2022-10-20T06:47:15;100886.38;;;5.29;96.10
41515;BME280;27247;48.020;16.720;2022-10-20T06:51:26;100882.72;;;5.65;95.05
41515;BME280;27247;48.020;16.720;2022-10-20T06:55:36;100890.50;;;5.90;94.95
41515;BME280;27247;48.020;16.720;2022-10-20T06:59:46;100884.47;;;6.22;94.31
41515;BME280;27247;48.020;16.720;2022-10-20T07:04:04;100894.84;;;6.47;93.22
41515;BME280;27247;48.020;16.720;2022-10-20T07:08:14;100898.03;;;6.73;94.33
41515;BME280;27247;48.020;16.720;2022-10-20T07:12:25;100900.38;;;6.98;93.62
41515;BME280;27247;48.020;16.720;2022-10-20T07:16:35;100900.38;;;7.30;93.30
41515;BME280;27247;48.020;16.720;2022-10-20T07:20:46;100899.63;;;7.60;91.76
41515;BME280;27247;48.020;16.720;2022-10-20T07:24:56;100896.41;;;7.87;89.98
41515;BME280;27247;48.020;16.720;2022-10-20T07:29:09;100898.19;;;8.08;89.61
41515;BME280;27247;48.020;16.720;2022-10-20T07:33:19;100893.63;;;8.19;89.36
41515;BME280;27247;48.020;16.720;2022-10-20T07:37:30;100888.56;;;8.37;89.36
41515;BME280;27247;48.020;16.720;2022-10-20T07:41:40;100884.66;;;8.51;89.27
41515;BME280;27247;48.020;16.720;2022-10-20T07:45:54;100879.38;;;8.70;89.49
41515;BME280;27247;48.020;16.720;2022-10-20T07:50:05;100878.28;;;8.92;89.53
41515;BME280;27247;48.020;16.720;2022-10-20T07:54:15;100866.75;;;9.30;88.11
41515;BME280;27247;48.020;16.720;2022-10-20T07:58:26;100868.13;;;9.63;86.39
41515;BME280;27247;48.020;16.720;2022-10-20T08:02:36;100851.59;;;9.97;86.09
41515;BME280;27247;48.020;16.720;2022-10-20T08:06:46;100847.59;;;10.47;81.93
41515;BME280;27247;48.020;16.720;2022-10-20T08:10:57;100832.59;;;10.82;79.30
41515;BME280;27247;48.020;16.720;2022-10-20T08:15:07;100840.81;;;11.06;77.32
41515;BME280;27247;48.020;16.720;2022-10-20T08:19:18;100822.63;;;11.10;76.83
41515;BME280;27247;48.020;16.720;2022-10-20T08:23:28;100828.34;;;11.15;75.82
41515;BME280;27247;48.020;16.720;2022-10-20T08:27:38;100834.13;;;11.46;75.48
41515;BME280;27247;48.020;16.720;2022-10-20T08:31:49;100830.47;;;11.29;74.63
41515;BME280;27247;48.020;16.720;2022-10-20T08:36:01;100842.75;;;11.40;74.86
41515;BME280;27247;48.020;16.720;2022-10-20T08:40:16;100839.91;;;11.59;74.67
41515;BME280;27247;48.020;16.720;2022-10-20T08:44:30;100833.88;;;11.57;75.00
41515;BME280;27247;48.020;16.720;2022-10-20T08:48:43;100828.19;;;11.78;73.97
41515;BME280;27247;48.020;16.720;2022-10-20T08:52:57;100834.50;;;11.77;73.22
41515;BME280;27247;48.020;16.720;2022-10-20T08:57:24;100830.53;;;11.81;73.60
41515;BME280;27247;48.020;16.720;2022-10-20T09:01:35;100836.22;;;12.12;72.47
41515;BME280;27247;48.020;16.720;2022-10-20T09:05:53;100826.38;;;12.21;70.24
41515;BME280;27247;48.020;16.720;2022-10-20T09:14:25;100814.38;;;12.41;70.34
41515;BME280;27247;48.020;16.720;2022-10-20T09:18:37;100815.97;;;12.76;69.60
41515;BME280;27247;48.020;16.720;2022-10-20T09:22:47;100818.34;;;13.11;68.96
41515;BME280;27247;48.020;16.720;2022-10-20T09:27:18;100811.50;;;13.33;68.78
41515;BME280;27247;48.020;16.720;2022-10-20T09:31:38;100815.16;;;13.49;68.46
41515;BME280;27247;48.020;16.720;2022-10-20T09:35:49;100800.88;;;13.64;67.55
41515;BME280;27247;48.020;16.720;2022-10-20T09:40:01;100811.63;;;13.64;67.75
41515;BME280;27247;48.020;16.720;2022-10-20T09:44:17;100809.66;;;13.26;68.18
41515;BME280;27247;48.020;16.720;2022-10-20T09:48:38;100808.44;;;13.12;68.16
41515;BME280;27247;48.020;16.720;2022-10-20T09:52:49;100805.44;;;13.48;68.15
41515;BME280;27247;48.020;16.720;2022-10-20T09:57:05;100805.09;;;13.59;67.36
41515;BME280;27247;48.020;16.720;2022-10-20T10:01:17;100795.38;;;13.41;68.58
41515;BME280;27247;48.020;16.720;2022-10-20T10:05:31;100794.97;;;13.77;67.66
41515;BME280;27247;48.020;16.720;2022-10-20T10:09:59;100790.50;;;14.09;66.69
41515;BME280;27247;48.020;16.720;2022-10-20T10:14:20;100784.44;;;13.59;68.08
41515;BME280;27247;48.020;16.720;2022-10-20T10:18:33;100785.00;;;13.94;66.96
41515;BME280;27247;48.020;16.720;2022-10-20T10:22:44;100782.44;;;13.45;67.55
41515;BME280;27247;48.020;16.720;2022-10-20T10:26:55;100777.25;;;13.43;68.36
41515;BME280;27247;48.020;16.720;2022-10-20T10:39:42;100760.47;;;14.28;67.05
41515;BME280;27247;48.020;16.720;2022-10-20T11:06:47;100707.19;;;14.62;65.68
41515;BME280;27247;48.020;16.720;2022-10-20T11:19:50;100699.78;;;14.64;64.96
41515;BME280;27247;48.020;16.720;2022-10-20T11:24:36;100680.19;;;15.08;64.29
41515;BME280;27247;48.020;16.720;2022-10-20T11:28:51;100668.84;;;15.57;63.77
41515;BME280;27247;48.020;16.720;2022-10-20T11:33:13;100674.94;;;15.74;63.59
41515;BME280;27247;48.020;16.720;2022-10-20T11:37:31;100656.03;;;15.00;64.38
41515;BME280;27247;48.020;16.720;2022-10-20T11:41:47;100641.84;;;15.50;64.49
41515;BME280;27247;48.020;16.720;2022-10-20T11:46:03;100631.28;;;15.63;64.42
41515;BME280;27247;48.020;16.720;2022-10-20T11:50:16;100630.38;;;15.92;63.73
41515;BME280;27247;48.020;16.720;2022-10-20T12:12:28;100598.78;;;16.08;62.99
41515;BME280;27247;48.020;16.720;2022-10-20T12:21:07;100594.09;;;16.16;63.76
41515;BME280;27247;48.020;16.720;2022-10-20T12:38:02;100584.88;;;16.53;61.73
41515;BME280;27247;48.020;16.720;2022-10-20T12:42:30;100576.78;;;17.09;61.45
41515;BME280;27247;48.020;16.720;2022-10-20T12:46:54;100570.50;;;16.46;62.11
41515;BME280;27247;48.020;16.720;2022-10-20T12:51:07;100562.88;;;16.78;62.32
41515;BME280;27247;48.020;16.720;2022-10-20T12:55:30;100562.84;;;16.22;63.01
41515;BME280;27247;48.020;16.720;2022-10-20T12:59:45;100565.03;;;16.12;63.40
41515;BME280;27247;48.020;16.720;2022-10-20T13:03:55;100552.66;;;15.96;63.94
41515;BME280;27247;48.020;16.720;2022-10-20T13:12:27;100552.25;;;15.27;66.02
41515;BME280;27247;48.020;16.720;2022-10-20T13:21:25;100529.16;;;15.54;65.31
41515;BME280;27247;48.020;16.720;2022-10-20T13:25:45;100531.22;;;15.37;65.65
41515;BME280;27247;48.020;16.720;2022-10-20T13:29:58;100519.50;;;15.45;66.34
41515;BME280;27247;48.020;16.720;2022-10-20T13:39:26;100524.47;;;15.26;67.15
41515;BME280;27247;48.020;16.720;2022-10-20T13:53:01;100535.53;;;15.31;66.98
41515;BME280;27247;48.020;16.720;2022-10-20T13:57:30;100528.03;;;15.48;66.40
41515;BME280;27247;48.020;16.720;2022-10-20T14:02:31;100531.19;;;15.52;65.84
41515;BME280;27247;48.020;16.720;2022-10-20T14:10:43;100521.69;;;15.56;66.24
41515;BME280;27247;48.020;16.720;2022-10-20T14:14:55;100536.22;;;15.70;65.33
41515;BME280;27247;48.020;16.720;2022-10-20T14:19:14;100528.72;;;15.36;66.76
41515;BME280;27247;48.020;16.720;2022-10-20T14:23:26;100530.63;;;15.20;67.39
41515;BME280;27247;48.020;16.720;2022-10-20T14:27:37;100521.56;;;14.92;67.04
41515;BME280;27247;48.020;16.720;2022-10-20T14:31:48;100520.34;;;14.94;67.09
41515;BME280;27247;48.020;16.720;2022-10-20T14:35:59;100522.53;;;15.20;66.80
41515;BME280;27247;48.020;16.720;2022-10-20T14:40:24;100520.44;;;15.01;67.42
41515;BME280;27247;48.020;16.720;2022-10-20T14:44:35;100518.22;;;14.60;68.35
41515;BME280;27247;48.020;16.720;2022-10-20T14:48:48;100523.84;;;14.51;69.20
41515;BME280;27247;48.020;16.720;2022-10-20T14:57:41;100508.94;;;14.11;70.94
41515;BME280;27247;48.020;16.720;2022-10-20T15:02:09;100518.25;;;14.00;71.44
41515;BME280;27247;48.020;16.720;2022-10-20T15:06:23;100514.75;;;13.77;72.77
41515;BME280;27247;48.020;16.720;2022-10-20T15:10:33;100497.31;;;13.72;73.35
41515;BME280;27247;48.020;16.720;2022-10-20T15:14:47;100485.69;;;13.57;73.76
41515;BME280;27247;48.020;16.720;2022-10-20T15:19:34;100493.75;;;13.80;73.00
41515;BME280;27247;48.020;16.720;2022-10-20T15:23:44;100474.44;;;13.99;72.70
41515;BME280;27247;48.020;16.720;2022-10-20T15:27:55;100467.03;;;14.01;72.88
41515;BME280;27247;48.020;16.720;2022-10-20T15:32:07;100461.06;;;13.91;72.78
41515;BME280;27247;48.020;16.720;2022-10-20T15:36:20;100453.50;;;13.72;73.86
41515;BME280;27247;48.020;16.720;2022-10-20T15:40:31;100448.78;;;13.51;74.48
41515;BME280;27247;48.020;16.720;2022-10-20T15:44:41;100439.31;;;13.40;75.22
41515;BME280;27247;48.020;16.720;2022-10-20T15:48:51;100439.78;;;13.13;76.02
41515;BME280;27247;48.020;16.720;2022-10-20T15:53:02;100433.41;;;13.14;76.12
41515;BME280;27247;48.020;16.720;2022-10-20T15:57:12;100416.06;;;13.02;76.88
41515;BME280;27247;48.020;16.720;2022-10-20T16:01:24;100413.72;;;12.99;77.09
41515;BME280;27247;48.020;16.720;2022-10-20T16:05:34;100426.03;;;12.85;77.21
41515;BME280;27247;48.020;16.720;2022-10-20T16:09:45;100437.59;;;12.86;77.24
41515;BME280;27247;48.020;16.720;2022-10-20T16:13:55;100437.16;;;12.74;77.83
41515;BME280;27247;48.020;16.720;2022-10-20T16:18:06;100428.69;;;12.54;78.77
41515;BME280;27247;48.020;16.720;2022-10-20T16:22:16;100439.59;;;12.53;78.79
41515;BME280;27247;48.020;16.720;2022-10-20T16:26:27;100440.94;;;12.40;79.65
41515;BME280;27247;48.020;16.720;2022-10-20T16:30:37;100430.25;;;12.32;79.63
41515;BME280;27247;48.020;16.720;2022-10-20T16:34:48;100423.59;;;12.20;80.13
41515;BME280;27247;48.020;16.720;2022-10-20T16:39:01;100424.78;;;12.18;80.56
41515;BME280;27247;48.020;16.720;2022-10-20T16:43:12;100425.47;;;12.03;80.72
41515;BME280;27247;48.020;16.720;2022-10-20T16:47:24;100437.53;;;11.99;80.78
41515;BME280;27247;48.020;16.720;2022-10-20T16:51:35;100443.72;;;12.00;80.54
41515;BME280;27247;48.020;16.720;2022-10-20T16:55:52;100440.88;;;12.01;80.51
41515;BME280;27247;48.020;16.720;2022-10-20T17:00:05;100438.53;;;11.98;80.47
41515;BME280;27247;48.020;16.720;2022-10-20T17:04:18;100432.53;;;11.88;80.90
41515;BME280;27247;48.020;16.720;2022-10-20T17:08:30;100446.75;;;11.89;80.62
41515;BME280;27247;48.020;16.720;2022-10-20T17:12:41;100433.69;;;11.94;80.59
41515;BME280;27247;48.020;16.720;2022-10-20T17:16:52;100444.91;;;11.89;80.63
41515;BME280;27247;48.020;16.720;2022-10-20T17:21:03;100440.41;;;11.81;80.38
41515;BME280;27247;48.020;16.720;2022-10-20T17:25:16;100436.03;;;11.89;80.75
41515;BME280;27247;48.020;16.720;2022-10-20T17:29:28;100442.91;;;11.83;80.96
41515;BME280;27247;48.020;16.720;2022-10-20T17:33:39;100444.06;;;11.89;81.33
41515;BME280;27247;48.020;16.720;2022-10-20T17:37:50;100445.91;;;11.88;81.22
41515;BME280;27247;48.020;16.720;2022-10-20T17:42:01;100444.41;;;11.86;80.87
41515;BME280;27247;48.020;16.720;2022-10-20T17:46:15;100427.69;;;11.83;81.22
41515;BME280;27247;48.020;16.720;2022-10-20T17:50:27;100436.72;;;11.82;81.55
41515;BME280;27247;48.020;16.720;2022-10-20T17:54:37;100435.03;;;11.81;81.73
41515;BME280;27247;48.020;16.720;2022-10-20T17:58:50;100428.69;;;11.82;81.74
41515;BME280;27247;48.020;16.720;2022-10-20T18:03:01;100419.78;;;11.74;81.97
41515;BME280;27247;48.020;16.720;2022-10-20T18:07:11;100415.78;;;11.70;81.87
41515;BME280;27247;48.020;16.720;2022-10-20T18:11:24;100415.28;;;11.66;82.24
41515;BME280;27247;48.020;16.720;2022-10-20T18:15:40;100414.78;;;11.71;82.03
41515;BME280;27247;48.020;16.720;2022-10-20T18:19:52;100411.44;;;11.69;82.32
41515;BME280;27247;48.020;16.720;2022-10-20T18:24:06;100415.78;;;11.70;82.24
41515;BME280;27247;48.020;16.720;2022-10-20T18:28:17;100422.66;;;11.64;82.57
41515;BME280;27247;48.020;16.720;2022-10-20T18:32:29;100418.28;;;11.63;82.70
41515;BME280;27247;48.020;16.720;2022-10-20T18:36:40;100410.94;;;11.65;82.42
41515;BME280;27247;48.020;16.720;2022-10-20T18:40:51;100402.56;;;11.60;82.64
41515;BME280;27247;48.020;16.720;2022-10-20T18:45:04;100403.06;;;11.56;82.80
41515;BME280;27247;48.020;16.720;2022-10-20T18:49:16;100401.06;;;11.49;83.09
41515;BME280;27247;48.020;16.720;2022-10-20T18:53:30;100398.03;;;11.36;83.58
41515;BME280;27247;48.020;16.720;2022-10-20T18:57:41;100395.69;;;11.33;83.92
41515;BME280;27247;48.020;16.720;2022-10-20T19:01:52;100387.66;;;11.25;84.38
41515;BME280;27247;48.020;16.720;2022-10-20T19:06:08;100386.81;;;11.16;84.28
41515;BME280;27247;48.020;16.720;2022-10-20T19:10:20;100385.63;;;11.11;84.61
41515;BME280;27247;48.020;16.720;2022-10-20T19:14:30;100382.13;;;11.10;84.97
41515;BME280;27247;48.020;16.720;2022-10-20T19:18:47;100390.31;;;11.01;85.24
41515;BME280;27247;48.020;16.720;2022-10-20T19:22:57;100390.97;;;10.95;85.05
41515;BME280;27247;48.020;16.720;2022-10-20T19:27:08;100388.28;;;10.95;85.39
41515;BME280;27247;48.020;16.720;2022-10-20T19:35:34;100392.28;;;10.82;85.67
41515;BME280;27247;48.020;16.720;2022-10-20T19:39:45;100384.25;;;10.82;85.32
41515;BME280;27247;48.020;16.720;2022-10-20T19:43:56;100380.72;;;10.74;85.56
41515;BME280;27247;48.020;16.720;2022-10-20T19:48:08;100389.41;;;10.68;85.83
41515;BME280;27247;48.020;16.720;2022-10-20T19:52:18;100382.38;;;10.67;85.47
41515;BME280;27247;48.020;16.720;2022-10-20T19:56:31;100371.88;;;10.73;85.12
41515;BME280;27247;48.020;16.720;2022-10-20T20:00:47;100371.19;;;10.63;85.16
41515;BME280;27247;48.020;16.720;2022-10-20T20:04:58;100377.69;;;10.61;85.66
41515;BME280;27247;48.020;16.720;2022-10-20T20:09:09;100383.00;;;10.52;85.61
41515;BME280;27247;48.020;16.720;2022-10-20T20:13:21;100382.47;;;10.41;85.94
41515;BME280;27247;48.020;16.720;2022-10-20T20:17:33;100371.22;;;10.37;85.91
41515;BME280;27247;48.020;16.720;2022-10-20T20:21:44;100374.72;;;10.38;85.93
41515;BME280;27247;48.020;16.720;2022-10-20T20:25:55;100367.50;;;10.22;86.23
41515;BME280;27247;48.020;16.720;2022-10-20T20:30:10;100378.00;;;10.23;85.87
41515;BME280;27247;48.020;16.720;2022-10-20T20:34:20;100369.25;;;10.13;86.25
41515;BME280;27247;48.020;16.720;2022-10-20T20:38:33;100365.22;;;10.09;85.94
41515;BME280;27247;48.020;16.720;2022-10-20T20:42:44;100364.34;;;10.01;86.76
41515;BME280;27247;48.020;16.720;2022-10-20T20:46:54;100364.34;;;10.01;86.37
41515;BME280;27247;48.020;16.720;2022-10-20T20:51:05;100361.31;;;9.96;86.47
41515;BME280;27247;48.020;16.720;2022-10-20T20:55:16;100361.75;;;9.83;87.03
41515;BME280;27247;48.020;16.720;2022-10-20T20:59:26;100361.59;;;9.84;86.36
41515;BME280;27247;48.020;16.720;2022-10-20T21:03:37;100346.22;;;9.78;86.16
41515;BME280;27247;48.020;16.720;2022-10-20T21:07:47;100347.88;;;9.79;86.17
41515;BME280;27247;48.020;16.720;2022-10-20T21:11:58;100352.03;;;9.74;85.67
41515;BME280;27247;48.020;16.720;2022-10-20T21:16:15;100345.63;;;9.67;86.00
41515;BME280;27247;48.020;16.720;2022-10-20T21:20:27;100336.97;;;9.65;86.00
41515;BME280;27247;48.020;16.720;2022-10-20T21:24:37;100331.94;;;9.62;85.74
41515;BME280;27247;48.020;16.720;2022-10-20T21:28:48;100326.75;;;9.60;85.72
41515;BME280;27247;48.020;16.720;2022-10-20T21:32:59;100332.25;;;9.58;85.54
41515;BME280;27247;48.020;16.720;2022-10-20T21:37:09;100325.66;;;9.45;85.79
41515;BME280;27247;48.020;16.720;2022-10-20T21:41:25;100336.25;;;9.37;86.32
41515;BME280;27247;48.020;16.720;2022-10-20T21:45:35;100336.69;;;9.50;85.23
41515;BME280;27247;48.020;16.720;2022-10-20T21:49:46;100362.47;;;9.41;85.44
41515;BME280;27247;48.020;16.720;2022-10-20T21:54:04;100364.63;;;9.38;85.51
41515;BME280;27247;48.020;16.720;2022-10-20T21:58:16;100385.94;;;9.38;85.36
41515;BME280;27247;48.020;16.720;2022-10-20T22:02:26;100379.53;;;9.31;85.61
41515;BME280;27247;48.020;16.720;2022-10-20T22:06:37;100385.69;;;9.31;85.64
41515;BME280;27247;48.020;16.720;2022-10-20T22:10:48;100372.66;;;9.28;85.94
41515;BME280;27247;48.020;16.720;2022-10-20T22:14:58;100357.91;;;9.16;86.01
41515;BME280;27247;48.020;16.720;2022-10-20T22:19:14;100347.63;;;9.21;85.96
41515;BME280;27247;48.020;16.720;2022-10-20T22:23:25;100321.81;;;9.04;86.32
41515;BME280;27247;48.020;16.720;2022-10-20T22:27:35;100289.00;;;8.85;87.42
41515;BME280;27247;48.020;16.720;2022-10-20T22:31:46;100299.91;;;8.74;87.78
41515;BME280;27247;48.020;16.720;2022-10-20T22:35:57;100299.59;;;8.59;87.80
41515;BME280;27247;48.020;16.720;2022-10-20T22:40:07;100307.50;;;8.51;87.99
41515;BME280;27247;48.020;16.720;2022-10-20T22:44:18;100337.09;;;8.48;87.65
41515;BME280;27247;48.020;16.720;2022-10-20T22:48:28;100346.41;;;8.62;87.79
41515;BME280;27247;48.020;16.720;2022-10-20T22:52:39;100338.78;;;8.67;86.93
41515;BME280;27247;48.020;16.720;2022-10-20T22:56:50;100358.03;;;8.61;87.06
41515;BME280;27247;48.020;16.720;2022-10-20T23:01:10;100341.16;;;8.70;86.35
41515;BME280;27247;48.020;16.720;2022-10-20T23:05:20;100335.34;;;8.57;87.05
41515;BME280;27247;48.020;16.720;2022-10-20T23:09:31;100328.94;;;8.50;87.42
41515;BME280;27247;48.020;16.720;2022-10-20T23:13:42;100306.44;;;8.44;87.56
41515;BME280;27247;48.020;16.720;2022-10-20T23:17:52;100324.41;;;8.32;87.86
41515;BME280;27247;48.020;16.720;2022-10-20T23:22:03;100298.50;;;8.25;87.98
41515;BME280;27247;48.020;16.720;2022-10-20T23:26:13;100297.34;;;8.27;87.56
41515;BME280;27247;48.020;16.720;2022-10-20T23:30:23;100287.00;;;8.24;87.93
41515;BME280;27247;48.020;16.720;2022-10-20T23:34:34;100287.59;;;8.18;87.93
41515;BME280;27247;48.020;16.720;2022-10-20T23:38:44;100290.56;;;8.15;87.43
41515;BME280;27247;48.020;16.720;2022-10-20T23:42:55;100300.22;;;8.16;86.83
41515;BME280;27247;48.020;16.720;2022-10-20T23:47:05;100299.38;;;8.16;87.29
41515;BME280;27247;48.020;16.720;2022-10-20T23:51:16;100301.41;;;8.04;87.46
41515;BME280;27247;48.020;16.720;2022-10-20T23:55:26;100289.63;;;8.07;88.07
41515;BME280;27247;48.020;16.720;2022-10-20T23:59:36;100298.75;;;8.04;88.13
